createdAt,value
2023-03-04T00:02:13.653Z,23.43
2023-03-04T00:04:40.455Z,18.13
2023-03-04T00:07:07.273Z,16.90
2023-03-04T00:09:34.002Z,14.13
2023-03-04T00:12:00.736Z,21.03
2023-03-04T00:14:30.236Z,15.63
2023-03-04T00:16:57.140Z,16.43
2023-03-04T00:19:24.016Z,14.13
2023-03-04T00:21:50.726Z,14.50
2023-03-04T00:24:17.572Z,14.07
2023-03-04T00:26:44.397Z,18.17
2023-03-04T00:29:11.065Z,17.23
2023-03-04T00:31:37.973Z,12.33
2023-03-04T00:34:04.808Z,13.97
2023-03-04T00:36:31.466Z,10.93
2023-03-04T00:38:58.139Z,12.93
2023-03-04T00:41:24.978Z,15.60
2023-03-04T00:43:51.957Z,22.00
2023-03-04T00:46:18.684Z,15.53
2023-03-04T00:48:45.404Z,11.13
2023-03-04T00:51:12.096Z,11.13
2023-03-04T00:53:38.925Z,10.10
2023-03-04T00:56:06.082Z,14.70
2023-03-04T00:58:32.817Z,9.57
2023-03-04T01:00:59.494Z,15.63
2023-03-04T01:03:26.958Z,15.60
2023-03-04T01:05:53.672Z,14.87
2023-03-04T01:08:20.399Z,12.27
2023-03-04T01:10:48.532Z,14.60
2023-03-04T01:13:15.196Z,14.20
2023-03-04T01:15:41.898Z,10.50
2023-03-04T01:18:08.682Z,12.23
2023-03-04T01:20:35.524Z,16.70
2023-03-04T01:23:02.210Z,12.67
2023-03-04T01:25:28.880Z,20.93
2023-03-04T01:27:55.564Z,16.07
2023-03-04T01:30:22.257Z,10.13
2023-03-04T01:32:48.941Z,13.20
2023-03-04T01:35:15.660Z,10.97
2023-03-04T01:37:42.348Z,12.10
2023-03-04T01:40:10.392Z,9.40
2023-03-04T01:42:37.127Z,14.47
2023-03-04T01:45:06.191Z,16.73
2023-03-04T01:47:36.179Z,11.63
2023-03-04T01:50:11.186Z,13.17
2023-03-04T01:52:40.031Z,13.23
2023-03-04T01:55:20.734Z,12.93
2023-03-04T01:57:49.064Z,12.23
2023-03-04T02:00:24.837Z,12.07
2023-03-04T02:02:56.234Z,12.20
2023-03-04T02:05:23.537Z,11.63
2023-03-04T02:07:52.133Z,9.37
2023-03-04T02:10:19.260Z,12.57
2023-03-04T02:12:46.242Z,13.37
2023-03-04T02:15:13.439Z,16.70
2023-03-04T02:17:40.514Z,15.53
2023-03-04T02:20:30.263Z,11.43
2023-03-04T02:23:12.078Z,12.07
2023-03-04T02:25:52.740Z,8.37
2023-03-04T02:28:19.461Z,14.73
2023-03-04T02:30:46.373Z,20.07
2023-03-04T02:33:19.590Z,11.67
2023-03-04T02:35:46.858Z,13.47
2023-03-04T02:38:14.040Z,11.30
2023-03-04T02:40:45.013Z,13.97
2023-03-04T02:43:12.241Z,11.70
2023-03-04T02:45:49.672Z,19.40
2023-03-04T02:48:18.943Z,13.07
2023-03-04T02:50:49.120Z,12.30
2023-03-04T02:53:16.576Z,18.50
2023-03-04T02:55:43.768Z,12.70
2023-03-04T02:58:11.134Z,9.50
2023-03-04T03:00:38.194Z,9.87
2023-03-04T03:03:05.483Z,13.67
2023-03-04T03:05:34.387Z,17.40
2023-03-04T03:08:01.531Z,9.07
2023-03-04T03:10:28.576Z,13.60
2023-03-04T03:12:55.441Z,7.83
2023-03-04T03:15:22.592Z,9.60
2023-03-04T03:17:49.316Z,12.87
2023-03-04T03:20:17.180Z,17.83
2023-03-04T03:22:44.476Z,9.97
2023-03-04T03:25:13.112Z,8.83
2023-03-04T03:27:39.833Z,9.70
2023-03-04T03:30:07.850Z,10.53
2023-03-04T03:32:34.608Z,10.53
2023-03-04T03:35:01.348Z,12.13
2023-03-04T03:37:28.001Z,5.77
2023-03-04T03:39:54.653Z,9.37
2023-03-04T03:42:21.442Z,12.00
2023-03-04T03:44:48.137Z,16.60
2023-03-04T03:47:14.764Z,5.13
2023-03-04T03:49:41.454Z,12.60
2023-03-04T03:52:09.122Z,10.63
2023-03-04T03:54:36.496Z,10.07
2023-03-04T03:57:03.276Z,12.17
2023-03-04T03:59:29.992Z,9.90
2023-03-04T04:01:56.811Z,10.17
2023-03-04T04:04:23.545Z,14.77
2023-03-04T04:06:50.258Z,10.17
2023-03-04T04:09:16.925Z,11.77
2023-03-04T04:11:44.651Z,7.80
2023-03-04T04:14:14.600Z,10.23
2023-03-04T04:16:41.468Z,9.10
2023-03-04T04:19:09.379Z,7.90
2023-03-04T04:21:36.009Z,7.60
2023-03-04T04:24:02.692Z,6.63
2023-03-04T04:26:29.323Z,4.83
2023-03-04T04:28:56.028Z,8.80
2023-03-04T04:31:22.706Z,9.77
2023-03-04T04:33:49.391Z,6.23
2023-03-04T04:36:16.684Z,6.93
2023-03-04T04:38:43.882Z,6.77
2023-03-04T04:41:23.169Z,7.47
2023-03-04T04:43:49.828Z,11.27
2023-03-04T04:46:17.190Z,5.77
2023-03-04T04:48:44.129Z,9.27
2023-03-04T04:51:11.343Z,8.70
2023-03-04T04:53:38.525Z,6.87
2023-03-04T04:56:17.120Z,9.27
2023-03-04T04:58:44.586Z,8.17
2023-03-04T05:01:11.683Z,8.70
2023-03-04T05:03:39.013Z,8.90
2023-03-04T05:06:08.356Z,4.87
2023-03-04T05:08:35.803Z,7.13
2023-03-04T05:11:03.463Z,7.20
2023-03-04T05:13:30.262Z,9.37
2023-03-04T05:15:57.867Z,8.27
2023-03-04T05:18:25.974Z,9.43
2023-03-04T05:20:55.049Z,8.60
2023-03-04T05:23:22.385Z,6.47
2023-03-04T05:25:49.453Z,5.27
2023-03-04T05:28:17.264Z,8.77
2023-03-04T05:30:45.546Z,11.87
2023-03-04T05:33:14.007Z,10.20
2023-03-04T05:35:41.991Z,9.00
2023-03-04T05:38:11.143Z,13.63
2023-03-04T05:40:38.925Z,7.17
2023-03-04T05:43:05.754Z,6.23
2023-03-04T05:45:33.543Z,8.30
2023-03-04T05:48:00.769Z,17.07
2023-03-04T05:50:27.504Z,8.87
2023-03-04T05:52:54.181Z,7.60
2023-03-04T05:55:21.028Z,6.10
2023-03-04T05:57:47.822Z,5.80
2023-03-04T06:00:16.618Z,12.23
2023-03-04T06:02:44.953Z,7.80
2023-03-04T06:05:14.371Z,8.93
2023-03-04T06:07:43.215Z,7.80
2023-03-04T06:10:12.951Z,10.43
2023-03-04T06:12:39.965Z,6.50
2023-03-04T06:15:07.311Z,11.33
2023-03-04T06:17:34.034Z,8.37
2023-03-04T06:20:00.682Z,3.10
2023-03-04T06:22:27.480Z,6.40
2023-03-04T06:24:54.154Z,10.23
2023-03-04T06:27:20.790Z,9.60
2023-03-04T06:29:47.452Z,9.33
2023-03-04T06:32:14.187Z,5.20
2023-03-04T06:34:40.929Z,9.90
2023-03-04T06:37:07.642Z,11.67
2023-03-04T06:39:34.330Z,5.03
2023-03-04T06:42:01.112Z,6.20
2023-03-04T06:44:28.012Z,3.00
2023-03-04T06:46:54.755Z,14.50
2023-03-04T06:49:21.434Z,7.90
2023-03-04T06:51:48.104Z,6.40
2023-03-04T06:54:14.791Z,6.10
2023-03-04T06:56:41.519Z,5.50
2023-03-04T06:59:08.215Z,11.27
2023-03-04T07:01:35.183Z,6.20
2023-03-04T07:04:02.625Z,9.87
2023-03-04T07:06:30.185Z,10.93
2023-03-04T07:08:57.619Z,8.37
2023-03-04T07:11:24.445Z,9.00
2023-03-04T07:13:51.594Z,6.00
2023-03-04T07:16:20.919Z,5.63
2023-03-04T07:18:47.689Z,8.63
2023-03-04T07:21:15.746Z,4.67
2023-03-04T07:23:42.530Z,7.10
2023-03-04T07:26:09.763Z,10.40
2023-03-04T07:28:36.564Z,8.73
2023-03-04T07:31:25.430Z,5.97
2023-03-04T07:33:52.629Z,8.63
2023-03-04T07:36:19.992Z,5.00
2023-03-04T07:38:49.550Z,5.17
2023-03-04T07:41:17.484Z,4.40
2023-03-04T07:43:45.014Z,4.80
2023-03-04T07:46:12.046Z,8.67
2023-03-04T07:48:38.774Z,5.67
2023-03-04T07:51:11.143Z,4.83
2023-03-04T07:53:39.752Z,5.20
2023-03-04T07:56:08.389Z,4.97
2023-03-04T07:58:35.107Z,8.97
2023-03-04T08:01:01.978Z,5.93
2023-03-04T08:03:29.728Z,5.70
2023-03-04T08:05:56.472Z,7.00
2023-03-04T08:08:23.208Z,4.07
2023-03-04T08:10:49.876Z,2.67
2023-03-04T08:13:16.553Z,4.63
2023-03-04T08:15:43.596Z,2.40
2023-03-04T08:18:10.417Z,7.73
2023-03-04T08:20:37.151Z,4.40
2023-03-04T08:23:03.942Z,4.07
2023-03-04T08:25:30.815Z,3.23
2023-03-04T08:27:57.549Z,3.40
2023-03-04T08:30:24.360Z,3.17
2023-03-04T08:32:51.078Z,1.77
2023-03-04T08:35:17.796Z,4.33
2023-03-04T08:37:46.025Z,3.17
2023-03-04T08:40:13.639Z,5.27
2023-03-04T08:42:41.364Z,5.63
2023-03-04T08:45:09.383Z,2.87
2023-03-04T08:47:36.187Z,3.27
2023-03-04T08:50:03.328Z,4.30
2023-03-04T08:52:30.748Z,3.77
2023-03-04T08:54:57.540Z,2.57
2023-03-04T08:57:24.550Z,5.23
2023-03-04T08:59:51.312Z,2.73
2023-03-04T09:02:18.050Z,3.10
2023-03-04T09:04:44.732Z,5.13
2023-03-04T09:07:11.512Z,2.77
2023-03-04T09:09:38.250Z,4.37
2023-03-04T09:12:05.115Z,4.30
2023-03-04T09:14:33.354Z,3.07
2023-03-04T09:17:00.450Z,4.13
2023-03-04T09:19:27.955Z,1.00
2023-03-04T09:21:55.892Z,3.27
2023-03-04T09:24:22.752Z,2.33
2023-03-04T09:26:53.543Z,1.90
2023-03-04T09:29:20.304Z,3.13
2023-03-04T09:31:47.257Z,2.50
2023-03-04T09:34:14.073Z,2.73
2023-03-04T09:36:40.808Z,3.53
2023-03-04T09:39:07.641Z,6.63
2023-03-04T09:41:49.660Z,1.27
2023-03-04T09:44:19.369Z,2.17
2023-03-04T09:46:48.908Z,3.23
2023-03-04T09:49:16.588Z,3.50
2023-03-04T09:51:58.249Z,2.80
2023-03-04T09:54:55.438Z,2.20
2023-03-04T09:57:24.892Z,2.07
2023-03-04T10:00:00.440Z,3.87
2023-03-04T10:03:03.954Z,4.90
2023-03-04T10:05:34.325Z,5.73
2023-03-04T10:08:53.003Z,3.80
2023-03-04T10:11:31.584Z,3.80
2023-03-04T10:14:16.632Z,5.03
2023-03-04T10:16:48.996Z,3.60
2023-03-04T10:19:24.781Z,2.67
2023-03-04T10:21:52.687Z,4.43
2023-03-04T10:24:22.695Z,5.00
2023-03-04T10:26:53.779Z,5.67
2023-03-04T10:29:24.323Z,3.80
2023-03-04T10:31:51.871Z,6.23
2023-03-04T10:34:19.085Z,3.33
2023-03-04T10:37:01.487Z,4.73
2023-03-04T10:39:35.474Z,3.77
2023-03-04T10:42:05.520Z,6.27
2023-03-04T10:44:34.620Z,3.37
2023-03-04T10:47:01.687Z,4.40
2023-03-04T10:49:30.791Z,2.70
2023-03-04T10:52:02.893Z,3.60
2023-03-04T10:54:37.605Z,4.47
2023-03-04T10:57:04.362Z,2.43
2023-03-04T10:59:57.019Z,2.33
2023-03-04T11:02:27.962Z,3.07
2023-03-04T11:05:15.542Z,3.10
2023-03-04T11:07:55.904Z,2.97
2023-03-04T11:10:37.174Z,4.30
2023-03-04T11:13:14.970Z,4.03
2023-03-04T11:16:24.707Z,2.60
2023-03-04T11:18:54.452Z,5.83
2023-03-04T11:21:28.781Z,6.10
2023-03-04T11:24:30.139Z,3.53
2023-03-04T11:27:18.723Z,4.63
2023-03-04T11:30:04.825Z,5.03
2023-03-04T11:32:40.463Z,4.23
2023-03-04T11:35:20.840Z,4.93
2023-03-04T11:38:03.913Z,7.13
2023-03-04T11:40:40.864Z,4.10
2023-03-04T11:43:19.146Z,3.40
2023-03-04T11:45:59.822Z,5.80
2023-03-04T11:48:51.445Z,3.53
2023-03-04T11:51:33.080Z,10.87
2023-03-04T11:54:28.960Z,8.67
2023-03-04T11:57:30.326Z,12.60
2023-03-04T12:00:18.618Z,7.33
2023-03-04T12:03:13.163Z,8.47
2023-03-04T12:06:00.674Z,7.57
2023-03-04T12:08:51.380Z,8.40
2023-03-04T12:11:27.077Z,5.83
2023-03-04T12:14:27.638Z,16.60
2023-03-04T12:17:13.045Z,7.83
2023-03-04T12:19:58.526Z,9.77
2023-03-04T12:22:43.702Z,11.03
2023-03-04T12:25:35.114Z,13.03
2023-03-04T12:28:23.876Z,7.87
2023-03-04T12:31:02.600Z,9.17
2023-03-04T12:33:29.262Z,9.90
2023-03-04T12:36:29.675Z,9.67
2023-03-04T12:39:00.733Z,10.77
2023-03-04T12:41:57.894Z,11.67
2023-03-04T12:44:24.828Z,13.37
2023-03-04T12:47:11.934Z,9.37
2023-03-04T12:50:04.364Z,10.63
2023-03-04T12:52:49.921Z,7.70
2023-03-04T12:55:22.308Z,10.17
2023-03-04T12:57:50.279Z,10.43
2023-03-04T13:00:45.591Z,9.80
2023-03-04T13:03:21.928Z,11.87
2023-03-04T13:06:14.873Z,11.43
2023-03-04T13:09:18.442Z,11.77
2023-03-04T13:11:52.794Z,13.07
2023-03-04T13:14:25.879Z,11.83
2023-03-04T13:17:25.638Z,9.03
2023-03-04T13:20:19.672Z,12.67
2023-03-04T13:22:54.188Z,11.97
2023-03-04T13:25:34.065Z,6.83
2023-03-04T13:28:02.633Z,5.07
2023-03-04T13:30:32.186Z,8.70
2023-03-04T13:33:08.476Z,7.20
2023-03-04T13:36:04.191Z,8.07
2023-03-04T13:38:31.142Z,8.17
2023-03-04T13:41:20.081Z,17.47
2023-03-04T13:43:52.107Z,14.07
2023-03-04T13:46:18.922Z,7.53
2023-03-04T13:48:51.680Z,10.73
2023-03-04T13:51:41.298Z,7.13
2023-03-04T13:54:16.219Z,6.87
2023-03-04T13:57:09.804Z,5.90
2023-03-04T13:59:46.529Z,7.47
2023-03-04T14:02:22.680Z,7.57
2023-03-04T14:05:00.913Z,7.13
2023-03-04T14:07:29.587Z,11.97
2023-03-04T14:09:57.744Z,7.87
2023-03-04T14:12:26.151Z,6.23
2023-03-04T14:14:56.197Z,6.33
2023-03-04T14:17:26.841Z,4.43
2023-03-04T14:19:54.054Z,3.47
2023-03-04T14:22:39.457Z,6.53
2023-03-04T14:25:13.555Z,5.57
2023-03-04T14:27:40.649Z,7.23
2023-03-04T14:30:39.070Z,6.20
2023-03-04T14:33:13.942Z,3.70
2023-03-04T14:35:47.395Z,5.97
2023-03-04T14:38:24.870Z,4.53
2023-03-04T14:40:56.573Z,5.97
2023-03-04T14:43:24.047Z,7.53
2023-03-04T14:45:54.585Z,8.67
2023-03-04T14:48:25.416Z,6.83
2023-03-04T14:50:53.965Z,15.40
2023-03-04T14:53:23.147Z,8.07
2023-03-04T14:55:59.799Z,5.47
2023-03-04T14:58:34.920Z,5.53
2023-03-04T15:01:05.902Z,5.60
2023-03-04T15:03:34.172Z,4.73
2023-03-04T15:06:21.996Z,3.47
2023-03-04T15:09:07.169Z,4.53
2023-03-04T15:11:47.147Z,5.53
2023-03-04T15:14:42.921Z,10.70
2023-03-04T15:17:51.373Z,10.43
2023-03-04T15:20:20.700Z,8.50
2023-03-04T15:22:53.243Z,10.97
2023-03-04T15:25:21.024Z,5.83
2023-03-04T15:27:50.000Z,11.03
2023-03-04T15:30:24.119Z,13.43
2023-03-04T15:32:50.905Z,11.20
2023-03-04T15:35:20.056Z,14.17
2023-03-04T15:37:49.475Z,10.90
2023-03-04T15:40:29.585Z,12.80
2023-03-04T15:42:58.271Z,10.77
2023-03-04T15:45:31.257Z,10.17
2023-03-04T15:47:58.385Z,11.80
2023-03-04T15:50:28.672Z,13.03
2023-03-04T15:53:02.202Z,7.40
2023-03-04T15:55:30.772Z,13.20
2023-03-04T15:58:00.219Z,14.27
2023-03-04T16:00:28.062Z,7.60
2023-03-04T16:02:54.778Z,19.93
2023-03-04T16:05:21.588Z,13.87
2023-03-04T16:07:50.270Z,12.60
2023-03-04T16:10:22.160Z,16.23
2023-03-04T16:12:49.757Z,14.27
2023-03-04T16:15:18.985Z,9.67
2023-03-04T16:17:46.738Z,7.33
2023-03-04T16:20:15.905Z,16.30
2023-03-04T16:22:43.898Z,12.30
2023-03-04T16:25:12.806Z,17.40
2023-03-04T16:27:40.345Z,12.87
2023-03-04T16:30:22.421Z,12.83
2023-03-04T16:32:49.237Z,11.87
2023-03-04T16:35:17.424Z,10.57
2023-03-04T16:37:44.940Z,10.03
2023-03-04T16:40:14.984Z,12.43
2023-03-04T16:42:41.985Z,9.83
2023-03-04T16:45:19.869Z,12.03
2023-03-04T16:47:46.917Z,10.40
2023-03-04T16:50:27.027Z,13.30
2023-03-04T16:52:55.111Z,11.97
2023-03-04T16:55:25.948Z,14.23
2023-03-04T16:57:53.887Z,18.30
2023-03-04T17:00:22.606Z,10.73
2023-03-04T17:02:56.352Z,10.00
2023-03-04T17:05:25.555Z,11.73
2023-03-04T17:07:52.241Z,15.73
2023-03-04T17:10:20.309Z,14.50
2023-03-04T17:12:47.117Z,11.13
2023-03-04T17:15:15.222Z,14.83
2023-03-04T17:17:43.023Z,18.03
2023-03-04T17:20:13.119Z,9.53
2023-03-04T17:22:40.250Z,14.77
2023-03-04T17:25:07.596Z,10.67
2023-03-04T17:27:35.060Z,9.30
2023-03-04T17:30:02.255Z,9.03
2023-03-04T17:32:31.507Z,8.67
2023-03-04T17:34:59.189Z,7.23
2023-03-04T17:37:26.748Z,7.80
2023-03-04T17:39:53.744Z,9.00
2023-03-04T17:42:20.894Z,10.53
2023-03-04T17:44:47.724Z,9.23
2023-03-04T17:47:15.246Z,7.93
2023-03-04T17:49:42.166Z,11.20
2023-03-04T17:52:08.973Z,5.77
2023-03-04T17:54:36.653Z,9.50
2023-03-04T17:57:03.982Z,5.87
2023-03-04T17:59:30.757Z,11.23
2023-03-04T18:01:57.486Z,7.27
2023-03-04T18:04:24.322Z,6.07
2023-03-04T18:06:51.081Z,7.17
2023-03-04T18:09:17.834Z,9.27
2023-03-04T18:11:44.749Z,8.93
2023-03-04T18:14:12.802Z,8.37
2023-03-04T18:16:40.498Z,8.33
2023-03-04T18:19:09.357Z,9.30
2023-03-04T18:21:36.484Z,9.37
2023-03-04T18:24:03.538Z,10.65
2023-03-04T18:26:30.689Z,10.10
2023-03-04T18:28:57.713Z,11.40
2023-03-04T18:31:29.465Z,9.80
2023-03-04T18:33:59.037Z,10.60
2023-03-04T18:36:25.795Z,9.90
2023-03-04T18:38:52.546Z,10.43
2023-03-04T18:41:19.404Z,8.70
2023-03-04T18:43:46.074Z,6.93
2023-03-04T18:46:21.664Z,9.10
2023-03-04T18:48:56.138Z,7.73
2023-03-04T18:51:22.974Z,7.33
2023-03-04T18:53:49.880Z,10.93
2023-03-04T18:56:21.708Z,6.90
2023-03-04T18:58:50.374Z,10.63
2023-03-04T19:01:20.423Z,7.77
2023-03-04T19:03:47.802Z,6.43
2023-03-04T19:06:14.834Z,8.33
2023-03-04T19:08:41.621Z,6.37
2023-03-04T19:11:08.512Z,6.23
2023-03-04T19:13:35.472Z,6.77
2023-03-04T19:16:02.176Z,13.13
2023-03-04T19:18:29.324Z,14.00
2023-03-04T19:20:59.014Z,7.50
2023-03-04T19:23:25.791Z,11.40
2023-03-04T19:25:52.579Z,12.00
2023-03-04T19:28:19.361Z,11.50
2023-03-04T19:30:46.298Z,5.33
2023-03-04T19:33:13.058Z,8.67
2023-03-04T19:35:44.468Z,11.97
2023-03-04T19:38:11.806Z,7.20
2023-03-04T19:40:40.402Z,5.80
2023-03-04T19:43:08.150Z,10.30
2023-03-04T19:45:35.002Z,11.23
2023-03-04T19:48:03.107Z,9.57
2023-03-04T19:50:31.175Z,10.67
2023-03-04T19:52:57.858Z,9.40
2023-03-04T19:55:24.669Z,6.60
2023-03-04T19:57:51.384Z,6.63
2023-03-04T20:00:18.568Z,11.23
2023-03-04T20:02:47.781Z,10.17
2023-03-04T20:05:14.498Z,4.87
2023-03-04T20:07:41.279Z,10.30
2023-03-04T20:10:08.805Z,9.87
2023-03-04T20:12:36.288Z,7.23
2023-03-04T20:15:06.123Z,5.53
2023-03-04T20:17:32.880Z,8.63
2023-03-04T20:19:59.559Z,7.43
2023-03-04T20:22:26.408Z,11.50
2023-03-04T20:24:54.847Z,8.47
2023-03-04T20:27:21.744Z,12.03
2023-03-04T20:29:49.164Z,5.30
2023-03-04T20:32:15.974Z,8.23
2023-03-04T20:34:42.696Z,10.20
2023-03-04T20:37:09.505Z,17.80
2023-03-04T20:39:36.202Z,10.90
2023-03-04T20:42:03.770Z,5.93
2023-03-04T20:44:30.502Z,5.47
2023-03-04T20:46:57.222Z,10.27
2023-03-04T20:49:27.143Z,7.97
2023-03-04T20:52:03.258Z,5.13
2023-03-04T20:54:30.756Z,10.20
2023-03-04T20:56:57.465Z,9.77
2023-03-04T20:59:24.523Z,5.50
2023-03-04T21:01:52.106Z,12.60
2023-03-04T21:04:19.608Z,16.83
2023-03-04T21:06:47.497Z,18.77
2023-03-04T21:09:16.441Z,13.17
2023-03-04T21:11:43.902Z,9.73
2023-03-04T21:14:24.809Z,10.93
2023-03-04T21:16:54.702Z,9.10
2023-03-04T21:19:27.551Z,9.43
2023-03-04T21:21:55.609Z,9.10
2023-03-04T21:24:24.928Z,7.70
2023-03-04T21:26:51.824Z,11.50
2023-03-04T21:29:20.635Z,12.27
2023-03-04T21:32:09.734Z,8.43
2023-03-04T21:34:48.233Z,15.17
2023-03-04T21:37:14.946Z,19.60
2023-03-04T21:39:41.596Z,19.60
2023-03-04T21:42:08.284Z,10.83
2023-03-04T21:44:48.461Z,12.17
2023-03-04T21:47:16.151Z,10.10
2023-03-04T21:49:42.825Z,11.97
2023-03-04T21:52:09.537Z,10.60
2023-03-04T21:54:36.257Z,14.57
2023-03-04T21:57:03.174Z,9.90
2023-03-04T21:59:29.910Z,10.27
2023-03-04T22:01:56.799Z,12.17
2023-03-04T22:04:23.492Z,12.13
2023-03-04T22:06:50.179Z,10.90
2023-03-04T22:09:16.891Z,11.80
2023-03-04T22:11:43.650Z,12.87
2023-03-04T22:14:11.096Z,10.27
2023-03-04T22:16:48.890Z,12.10
2023-03-04T22:19:19.640Z,11.07
2023-03-04T22:21:46.305Z,12.70
2023-03-04T22:24:13.038Z,9.53
2023-03-04T22:26:39.697Z,9.30
2023-03-04T22:29:06.499Z,9.50
2023-03-04T22:31:35.449Z,8.17
2023-03-04T22:34:04.923Z,10.87
2023-03-04T22:36:34.921Z,11.50
2023-03-04T22:39:03.376Z,10.23
2023-03-04T22:41:30.273Z,7.03
2023-03-04T22:43:57.018Z,12.17
2023-03-04T22:46:27.385Z,10.83
2023-03-04T22:48:58.586Z,8.93
2023-03-04T22:51:25.710Z,5.93
2023-03-04T22:53:53.064Z,13.80
2023-03-04T22:56:20.265Z,11.27
2023-03-04T22:58:47.783Z,11.53
2023-03-04T23:01:15.978Z,12.83
2023-03-04T23:03:45.142Z,7.67
2023-03-04T23:06:15.222Z,7.67
2023-03-04T23:08:44.016Z,8.87
2023-03-04T23:11:14.152Z,9.83
2023-03-04T23:13:41.262Z,11.40
2023-03-04T23:16:10.897Z,6.60
2023-03-04T23:18:39.737Z,6.50
2023-03-04T23:21:12.068Z,7.67
2023-03-04T23:23:41.422Z,12.07
2023-03-04T23:26:16.912Z,10.37
2023-03-04T23:28:43.697Z,13.30
2023-03-04T23:31:10.739Z,9.30
2023-03-04T23:33:37.436Z,11.43
2023-03-04T23:36:04.359Z,7.67
2023-03-04T23:38:31.016Z,11.33
2023-03-04T23:40:57.914Z,11.67
2023-03-04T23:43:27.123Z,18.10
2023-03-04T23:45:53.810Z,9.87
2023-03-04T23:48:20.480Z,11.17
2023-03-04T23:50:52.842Z,6.53
2023-03-04T23:53:20.101Z,7.50
2023-03-04T23:55:47.031Z,7.70
2023-03-04T23:58:13.911Z,5.90
